WetterOnline ( https://www.wetteronline.at )

Wetter aktuell Helgoland

Aktuelles Wetter: Helgoland/Düne (8m)

6-stündlich | Neueste Meldungen
Ortszeit Temperatur Wetter
So, 25.09. 20:00 13.8° C wolkig
So, 25.09. 14:00 15.4° C leicht bewölkt
So, 25.09. 8:00 13.5° C fast wolkenlos
So, 25.09. 2:00 14.3° C wolkenlos
Sa, 24.09. 20:00 14.5° C bedeckt
Sa, 24.09. 14:00 14.1° C bedeckt
Sa, 24.09. 8:00 13.6° C bewölkt
Sa, 24.09. 2:00 13.6° C Regen
Ortszeit Temperatur Wetter
Mo, 26.09. 1:30 12.8° C Sprühregen
Mo, 26.09. 1:20 12.8° C Sprühregen
Mo, 26.09. 1:10 14.5° C bedeckt
Mo, 26.09. 1:00 14.1° C wolkig
Mo, 26.09. 0:50 14.1° C wolkig
Mo, 26.09. 0:40 13.6° C bedeckt
Mo, 26.09. 0:30 13.7° C bewölkt
Mo, 26.09. 0:00 14.0° C wolkig
So, 25.09. 23:30 13.4° C bedeckt
So, 25.09. 23:00 14.2° C bewölkt
So, 25.09. 22:30 14.4° C bedeckt
Ortszeit Relative Feuchte Sichtweite
So, 25.09. 20:00 63% 60 km
So, 25.09. 14:00 58% 35 km
So, 25.09. 8:00 67% 50 km
So, 25.09. 2:00 68% 50 km
Sa, 24.09. 20:00 68% 40 km
Sa, 24.09. 14:00 79% 30 km
Sa, 24.09. 8:00 91% 11 km
Sa, 24.09. 2:00 89% 5.0 km
Ortszeit Relative Feuchte Sichtweite
Mo, 26.09. 1:30 84% 17 km
Mo, 26.09. 1:20 84% -
Mo, 26.09. 1:10 68% -
Mo, 26.09. 1:00 76% 35 km
Mo, 26.09. 0:50 76% -
Mo, 26.09. 0:40 77% -
Mo, 26.09. 0:30 76% 35 km
Mo, 26.09. 0:00 76% 40 km
So, 25.09. 23:30 77% 40 km
So, 25.09. 23:00 66% 50 km
So, 25.09. 22:30 65% 50 km
Ortszeit Niederschlagsmenge Niederschlagsart
So, 25.09. 20:00 0.0 l/m2 in 12 Std. -
So, 25.09. 14:00 0.0 l/m2 in 6 Std. -
So, 25.09. 8:00 0.0 l/m2 in 12 Std. -
So, 25.09. 2:00 0.0 l/m2 in 6 Std. -
Sa, 24.09. 20:00 0.1 l/m2 in 12 Std. Sprühregen
Sa, 24.09. 14:00 0.1 l/m2 in 6 Std. Regen
Sa, 24.09. 8:00 10 l/m2 in 12 Std. Regen
Sa, 24.09. 2:00 5 l/m2 in 6 Std. Regen
Ortszeit Niederschlagsmenge Niederschlagsart
Mo, 26.09. 1:30 0.1 l/m2 in 1 Std. -
Mo, 26.09. 1:20 keine Meldung -
Mo, 26.09. 1:10 keine Meldung -
Mo, 26.09. 1:00 0.0 l/m2 in 1 Std. -
Mo, 26.09. 0:50 keine Meldung -
Mo, 26.09. 0:40 keine Meldung -
Mo, 26.09. 0:30 0.0 l/m2 in 1 Std. -
Mo, 26.09. 0:00 0.1 l/m2 in 1 Std. Regen
So, 25.09. 23:30 0.1 l/m2 in 1 Std. Schneeregen
So, 25.09. 23:00 0.0 l/m2 in 1 Std. -
So, 25.09. 22:30 0.0 l/m2 in 1 Std. -
Ortszeit Stärke Spitze Richtung
km/h Bft. km/h Grad Sektor
So, 25.09. 20:00 14 3 29 270° W
So, 25.09. 14:00 20 4 33 320° NW
So, 25.09. 8:00 28 4 41 350° N
So, 25.09. 2:00 24 4 39 10° N
Sa, 24.09. 20:00 29 5 40 360° N
Sa, 24.09. 14:00 30 5 39 30° NO
Sa, 24.09. 8:00 14 3 25 110° O
Sa, 24.09. 2:00 13 3 28 180° S
Ortszeit Stärke Spitze Richtung
km/h Bft. km/h Grad Sektor
Mo, 26.09. 1:30 32 5 50 250° W
Mo, 26.09. 1:20 32 5 - 250° W
Mo, 26.09. 1:10 31 5 - 240° SW
Mo, 26.09. 1:00 18 3 40 220° SW
Mo, 26.09. 0:50 18 3 - 220° SW
Mo, 26.09. 0:40 22 4 - 220° SW
Mo, 26.09. 0:30 26 4 37 230° SW
Mo, 26.09. 0:00 24 4 39 240° SW
So, 25.09. 23:30 26 4 39 240° SW
So, 25.09. 23:00 29 5 43 250° W
So, 25.09. 22:30 18 3 29 240° SW
Ortszeit Untergrenze Bedeckung Gattung
total tief tief mittel hoch
So, 25.09. 20:00 990 m 8/8 2/8 - - -
So, 25.09. 14:00 780 m 3/8 3/8 - - -
So, 25.09. 8:00 900 m 1/8 1/8 - - -
So, 25.09. 2:00 - 0/8 0/8 - - -
Sa, 24.09. 20:00 720 m 8/8 8/8 - - -
Sa, 24.09. 14:00 450 m 8/8 8/8 - - -
Sa, 24.09. 8:00 240 m 7/8 7/8 - - -
Sa, 24.09. 2:00 300 m 7/8 7/8 - - -
Ortszeit Bedeckungsgrad in Achtel und Wolkenuntergrenze
Mo, 26.09. 1:30 6(780m) 8(1500m) 8(4200m)
Mo, 26.09. 1:20 6(780m) 8(1500m) 8(4200m)
Mo, 26.09. 1:10 8
Mo, 26.09. 1:00 3(1020m) 8(3900m) 8(4500m)
Mo, 26.09. 0:50 3(1020m) 8(3900m) 8(4500m)
Mo, 26.09. 0:40 8
Mo, 26.09. 0:30 2(690m) 7(1800m) 8(4500m)
Mo, 26.09. 0:00 2(990m) 8(5100m) 8(5700m)
So, 25.09. 23:30 1(600m) 7(1290m) 8(1500m)
So, 25.09. 23:00 7(1380m) 7(1800m) 7(6000m)
So, 25.09. 22:30 5(930m) 8(1800m) 8(6300m)
Ortszeit Luftdruck NN (hPa) Tendenz (hPa in 3 Std.)
So, 25.09. 20:00 1010 - 1,5
So, 25.09. 14:00 1013 - 0,8
So, 25.09. 8:00 1014 - 0,3
So, 25.09. 2:00 1014 - 0,2
Sa, 24.09. 20:00 1014 + 0,6
Sa, 24.09. 14:00 1013 + 0,7
Sa, 24.09. 8:00 1011 0,0
Sa, 24.09. 2:00 1012 - 0,7
Ortszeit Luftdruck NN (hPa) Tendenz (hPa in 3 Std.)
Mo, 26.09. 1:30 1006 - 2,8
Mo, 26.09. 1:20 1006 keine Meldung
Mo, 26.09. 1:10 1006 keine Meldung
Mo, 26.09. 1:00 1006 - 3,0
Mo, 26.09. 0:50 1006 keine Meldung
Mo, 26.09. 0:40 1006 keine Meldung
Mo, 26.09. 0:30 1007 - 2,5
Mo, 26.09. 0:00 1007 - 2,3
So, 25.09. 23:30 1008 - 1,9
So, 25.09. 23:00 1008 - 2,0
So, 25.09. 22:30 1008 - 2,2
Ortszeit Schneehöhe (cm)
So, 25.09. 20:00 0
So, 25.09. 14:00 0
So, 25.09. 8:00 0
So, 25.09. 2:00 0
Sa, 24.09. 20:00 0
Sa, 24.09. 14:00 0
Sa, 24.09. 8:00 0
Sa, 24.09. 2:00 0
Ortszeit Schneehöhe (cm)
Mo, 26.09. 1:30 0
Mo, 26.09. 1:20 0
Mo, 26.09. 1:10 0
Mo, 26.09. 1:00 0
Mo, 26.09. 0:50 0
Mo, 26.09. 0:40 0
Mo, 26.09. 0:30 0
Mo, 26.09. 0:00 0
So, 25.09. 23:30 0
So, 25.09. 23:00 0
So, 25.09. 22:30 0
Link zu dieser Seite / Seite empfehlen

Das Wetter in ...